createdAt,value
2023-06-19T00:01:51.650Z,61.26
2023-06-19T00:04:54.309Z,60.99
2023-06-19T00:07:56.700Z,60.72
2023-06-19T00:10:59.419Z,60.80
2023-06-19T00:14:02.172Z,61.17
2023-06-19T00:17:05.209Z,61.39
2023-06-19T00:20:08.012Z,61.82
2023-06-19T00:23:14.635Z,61.97
2023-06-19T00:26:17.059Z,61.95
2023-06-19T00:29:19.815Z,61.54
2023-06-19T00:32:22.677Z,61.80
2023-06-19T00:35:26.011Z,61.63
2023-06-19T00:38:30.029Z,61.76
2023-06-19T00:41:33.733Z,61.79
2023-06-19T00:44:36.127Z,62.39
2023-06-19T00:47:39.539Z,63.04
2023-06-19T00:50:42.041Z,63.72
2023-06-19T00:53:44.856Z,63.92
2023-06-19T00:56:47.439Z,63.52
2023-06-19T00:59:50.348Z,63.17
2023-06-19T01:02:52.913Z,63.27
2023-06-19T01:05:57.654Z,63.46
2023-06-19T01:09:06.984Z,63.55
2023-06-19T01:12:15.865Z,63.38
2023-06-19T01:15:18.841Z,63.33
2023-06-19T01:18:22.552Z,63.30
2023-06-19T01:21:25.018Z,63.32
2023-06-19T01:24:27.712Z,62.88
2023-06-19T01:27:32.835Z,62.74
2023-06-19T01:30:35.619Z,62.42
2023-06-19T01:33:41.498Z,62.15
2023-06-19T01:36:44.626Z,62.71
2023-06-19T01:39:48.134Z,62.87
2023-06-19T01:42:52.145Z,62.43
2023-06-19T01:45:54.499Z,63.11
2023-06-19T01:48:57.185Z,63.49
2023-06-19T01:52:01.971Z,63.49
2023-06-19T01:55:06.544Z,63.95
2023-06-19T01:58:11.046Z,63.94
2023-06-19T02:01:13.666Z,63.54
2023-06-19T02:04:16.343Z,63.74
2023-06-19T02:07:18.693Z,64.55
2023-06-19T02:10:22.847Z,65.26
2023-06-19T02:13:25.317Z,64.82
2023-06-19T02:16:28.021Z,64.83
2023-06-19T02:19:31.164Z,65.47
2023-06-19T02:22:33.746Z,65.75
2023-06-19T02:25:37.230Z,65.84
2023-06-19T02:28:39.986Z,65.86
2023-06-19T02:31:43.655Z,66.03
2023-06-19T02:34:46.924Z,66.32
2023-06-19T02:37:49.604Z,66.10
2023-06-19T02:40:52.046Z,66.36
2023-06-19T02:43:55.074Z,66.30
2023-06-19T02:46:57.389Z,66.03
2023-06-19T02:50:01.127Z,66.19
2023-06-19T02:53:03.500Z,66.58
2023-06-19T02:56:06.181Z,66.32
2023-06-19T02:59:08.607Z,66.45
2023-06-19T03:02:11.268Z,66.74
2023-06-19T03:05:16.103Z,67.60
2023-06-19T03:08:18.886Z,67.83
2023-06-19T03:11:21.352Z,68.60
2023-06-19T03:14:24.159Z,68.82
2023-06-19T03:17:27.069Z,69.28
2023-06-19T03:20:29.914Z,69.20
2023-06-19T03:23:32.690Z,68.86
2023-06-19T03:26:35.409Z,69.61
2023-06-19T03:29:38.213Z,69.68
2023-06-19T03:32:41.181Z,69.73
2023-06-19T03:35:44.596Z,69.96
2023-06-19T03:38:49.334Z,70.15
2023-06-19T03:41:52.331Z,70.74
2023-06-19T03:44:55.060Z,70.32
2023-06-19T03:47:57.527Z,70.09
2023-06-19T03:51:00.620Z,69.47
2023-06-19T03:54:03.652Z,69.37
2023-06-19T03:57:07.446Z,69.02
2023-06-19T04:00:12.296Z,68.58
2023-06-19T04:03:14.806Z,68.52
2023-06-19T04:06:17.577Z,68.64
2023-06-19T04:09:19.990Z,68.49
2023-06-19T04:12:22.690Z,68.03
2023-06-19T04:15:25.253Z,67.98
2023-06-19T04:18:29.369Z,68.29
2023-06-19T04:21:32.673Z,68.01
2023-06-19T04:24:36.385Z,67.49
2023-06-19T04:27:39.000Z,67.12
2023-06-19T04:30:41.736Z,67.40
2023-06-19T04:33:44.095Z,67.53
2023-06-19T04:36:46.733Z,67.06
2023-06-19T04:39:49.096Z,66.75
2023-06-19T04:42:55.002Z,66.37
2023-06-19T04:45:57.371Z,65.98
2023-06-19T04:49:00.370Z,65.92
2023-06-19T04:52:04.254Z,65.93
2023-06-19T04:55:10.424Z,65.94
2023-06-19T04:58:12.869Z,65.84
2023-06-19T05:01:16.508Z,66.33
2023-06-19T05:04:19.046Z,65.14
2023-06-19T05:07:21.974Z,64.97
2023-06-19T05:10:24.713Z,63.83
2023-06-19T05:13:27.706Z,63.81
2023-06-19T05:16:30.180Z,63.65
2023-06-19T05:19:33.505Z,64.02
2023-06-19T05:22:36.068Z,64.65
2023-06-19T05:25:38.850Z,64.98
2023-06-19T05:28:41.293Z,64.75
2023-06-19T05:31:44.014Z,64.40
2023-06-19T05:34:46.386Z,63.98
2023-06-19T05:37:49.372Z,61.01
2023-06-19T05:40:51.927Z,58.53
2023-06-19T05:43:54.756Z,56.94
2023-06-19T05:46:57.361Z,56.33
2023-06-19T05:50:00.605Z,55.31
2023-06-19T05:53:02.984Z,54.67
2023-06-19T05:56:06.961Z,54.44
2023-06-19T05:59:09.462Z,53.74
2023-06-19T06:02:12.173Z,53.38
2023-06-19T06:05:15.207Z,52.92
2023-06-19T06:08:17.688Z,52.47
2023-06-19T06:11:20.533Z,52.25
2023-06-19T06:14:24.799Z,52.11
2023-06-19T06:17:27.535Z,51.54
2023-06-19T06:20:30.301Z,51.33
2023-06-19T06:23:33.116Z,51.50
2023-06-19T06:26:36.584Z,51.01
2023-06-19T06:29:39.217Z,50.71
2023-06-19T06:32:41.622Z,49.24
2023-06-19T06:35:46.958Z,48.27
2023-06-19T06:38:49.392Z,47.71
2023-06-19T06:41:52.256Z,48.61
2023-06-19T06:44:54.632Z,48.36
2023-06-19T06:47:57.307Z,48.36
2023-06-19T06:51:02.641Z,48.29
2023-06-19T06:54:05.313Z,46.90
2023-06-19T06:57:07.766Z,46.21
2023-06-19T07:00:12.505Z,45.80
2023-06-19T07:03:15.071Z,46.39
2023-06-19T07:06:17.814Z,45.51
2023-06-19T07:09:22.199Z,45.40
2023-06-19T07:12:24.910Z,45.09
2023-06-19T07:15:27.284Z,44.55
2023-06-19T07:18:30.039Z,43.83
2023-06-19T07:21:32.576Z,43.82
2023-06-19T07:24:35.341Z,42.72
2023-06-19T07:27:38.002Z,43.42
2023-06-19T07:30:40.995Z,43.29
2023-06-19T07:33:43.406Z,42.55
2023-06-19T07:36:46.098Z,41.14
2023-06-19T07:39:50.966Z,41.24
2023-06-19T07:42:53.871Z,41.75
2023-06-19T07:45:56.304Z,41.83
2023-06-19T07:48:58.986Z,41.64
2023-06-19T07:52:01.399Z,42.36
2023-06-19T07:55:04.324Z,41.63
2023-06-19T07:58:06.771Z,41.86
2023-06-19T08:01:09.834Z,42.92
2023-06-19T08:04:12.718Z,42.74
2023-06-19T08:07:15.311Z,42.65
2023-06-19T08:10:18.063Z,42.35
2023-06-19T08:13:21.130Z,41.60
2023-06-19T08:16:27.103Z,40.58
2023-06-19T08:19:29.499Z,40.07
2023-06-19T08:22:32.503Z,40.98
2023-06-19T08:25:34.906Z,41.91
2023-06-19T08:28:38.731Z,42.14
2023-06-19T08:31:41.545Z,42.09
2023-06-19T08:34:44.586Z,42.29
2023-06-19T08:37:47.104Z,41.34
2023-06-19T08:40:50.223Z,41.16
2023-06-19T08:43:52.768Z,41.16
2023-06-19T08:46:55.569Z,40.90
2023-06-19T08:50:02.154Z,40.64
2023-06-19T08:53:05.419Z,39.46
2023-06-19T08:56:07.880Z,39.47
2023-06-19T08:59:15.325Z,39.01
2023-06-19T09:02:18.202Z,39.34
2023-06-19T09:05:20.962Z,39.19
2023-06-19T09:08:24.099Z,38.38
2023-06-19T09:11:27.314Z,37.90
2023-06-19T09:14:36.634Z,37.35
2023-06-19T09:17:39.372Z,36.76
2023-06-19T09:20:54.907Z,36.71
2023-06-19T09:24:07.342Z,36.03
2023-06-19T09:27:14.641Z,35.96
2023-06-19T09:30:17.763Z,35.58
2023-06-19T09:33:21.156Z,35.09
2023-06-19T09:36:25.411Z,35.78
2023-06-19T09:39:30.283Z,34.74
2023-06-19T09:42:36.229Z,34.70
2023-06-19T09:45:39.594Z,34.47
2023-06-19T09:48:44.152Z,33.66
2023-06-19T09:51:46.968Z,32.75
2023-06-19T09:54:55.034Z,32.08
2023-06-19T09:57:58.398Z,31.87
2023-06-19T10:01:02.305Z,33.62
2023-06-19T10:04:11.922Z,33.29
2023-06-19T10:07:19.163Z,32.74
2023-06-19T10:10:26.860Z,32.55
2023-06-19T10:13:39.764Z,33.12
2023-06-19T10:16:43.216Z,32.53
2023-06-19T10:19:53.363Z,32.93
2023-06-19T10:22:59.060Z,31.99
2023-06-19T10:26:04.078Z,31.56
2023-06-19T10:29:19.180Z,32.41
2023-06-19T10:32:22.958Z,32.57
2023-06-19T10:35:26.134Z,32.12
2023-06-19T10:38:28.844Z,31.89
2023-06-19T10:41:33.177Z,32.02
2023-06-19T10:44:36.158Z,31.57
2023-06-19T10:47:40.613Z,30.99
2023-06-19T10:50:43.547Z,31.03
2023-06-19T10:53:46.392Z,30.64
2023-06-19T10:56:49.891Z,30.88
2023-06-19T10:59:53.111Z,30.61
2023-06-19T11:02:57.400Z,30.23
2023-06-19T11:06:00.187Z,30.14
2023-06-19T11:09:04.352Z,30.24
2023-06-19T11:12:09.154Z,29.75
2023-06-19T11:15:12.224Z,29.80
2023-06-19T11:18:17.208Z,29.77
2023-06-19T11:21:19.732Z,29.95
2023-06-19T11:24:24.851Z,29.46
2023-06-19T11:27:29.644Z,29.29
2023-06-19T11:30:34.324Z,29.33
2023-06-19T11:33:36.921Z,29.27
2023-06-19T11:36:43.905Z,28.79
2023-06-19T11:39:47.421Z,28.42
2023-06-19T11:42:53.514Z,28.13
2023-06-19T11:46:06.758Z,27.49
2023-06-19T11:49:19.916Z,27.62
2023-06-19T11:52:22.984Z,27.35
2023-06-19T11:55:25.831Z,27.15
2023-06-19T11:58:28.258Z,27.10
2023-06-19T12:01:33.645Z,26.99
2023-06-19T12:04:36.917Z,27.31
2023-06-19T12:07:40.381Z,27.52
2023-06-19T12:10:43.589Z,27.34
2023-06-19T12:13:46.299Z,27.04
2023-06-19T12:16:49.532Z,26.76
2023-06-19T12:19:52.861Z,27.02
2023-06-19T12:22:56.352Z,26.58
2023-06-19T12:25:58.821Z,26.36
2023-06-19T12:29:01.473Z,26.88
2023-06-19T12:32:04.843Z,26.62
2023-06-19T12:35:08.404Z,26.60
2023-06-19T12:38:11.054Z,26.78
2023-06-19T12:41:13.868Z,25.99
2023-06-19T12:44:16.339Z,26.84
2023-06-19T12:47:19.466Z,26.88
2023-06-19T12:50:22.394Z,27.17
2023-06-19T12:53:30.068Z,27.03
2023-06-19T12:56:32.589Z,27.29
2023-06-19T12:59:35.316Z,26.90
2023-06-19T13:02:38.123Z,26.54
2023-06-19T13:05:41.248Z,27.34
2023-06-19T13:08:44.156Z,27.00
2023-06-19T13:11:46.893Z,26.72
2023-06-19T13:14:49.334Z,26.94
2023-06-19T13:17:52.144Z,26.50
2023-06-19T13:20:54.562Z,26.01
2023-06-19T13:23:57.387Z,26.21
2023-06-19T13:27:00.110Z,27.41
2023-06-19T13:30:04.092Z,27.15
2023-06-19T13:33:06.779Z,26.83
2023-06-19T13:36:09.510Z,27.24
2023-06-19T13:39:12.068Z,27.43
2023-06-19T13:42:15.045Z,28.05
2023-06-19T13:45:17.716Z,28.00
2023-06-19T13:48:20.422Z,27.89
2023-06-19T13:51:23.182Z,28.30
2023-06-19T13:54:25.901Z,27.83
2023-06-19T13:57:28.360Z,27.55
2023-06-19T14:00:31.200Z,27.05
2023-06-19T14:03:34.279Z,27.63
2023-06-19T14:06:39.197Z,27.67
2023-06-19T14:09:42.619Z,27.29
2023-06-19T14:12:45.000Z,27.17
2023-06-19T14:15:47.781Z,27.52
2023-06-19T14:18:50.158Z,27.80
2023-06-19T14:21:52.923Z,27.49
2023-06-19T14:25:00.647Z,26.98
2023-06-19T14:28:05.732Z,26.81
2023-06-19T14:31:08.506Z,27.05
2023-06-19T14:34:11.233Z,27.34
2023-06-19T14:37:13.931Z,27.79
2023-06-19T14:40:16.699Z,27.63
2023-06-19T14:43:19.242Z,27.56
2023-06-19T14:46:37.293Z,27.52
2023-06-19T14:49:41.701Z,27.79
2023-06-19T14:52:44.551Z,27.53
2023-06-19T14:55:48.195Z,27.69
2023-06-19T14:58:50.928Z,28.15
2023-06-19T15:01:53.375Z,28.59
2023-06-19T15:05:05.883Z,28.18
2023-06-19T15:08:11.117Z,27.87
2023-06-19T15:11:13.892Z,28.48
2023-06-19T15:14:16.736Z,28.58
2023-06-19T15:17:20.092Z,28.81
2023-06-19T15:20:22.757Z,28.74
2023-06-19T15:23:25.764Z,28.41
2023-06-19T15:26:28.271Z,28.34
2023-06-19T15:29:31.996Z,28.59
2023-06-19T15:32:35.496Z,28.77
2023-06-19T15:35:38.276Z,28.96
2023-06-19T15:38:41.012Z,28.80
2023-06-19T15:41:48.482Z,28.66
2023-06-19T15:44:51.093Z,29.50
2023-06-19T15:47:54.485Z,29.42
2023-06-19T15:50:57.247Z,30.18
2023-06-19T15:54:00.063Z,29.92
2023-06-19T15:57:02.531Z,30.00
2023-06-19T16:00:06.581Z,29.76
2023-06-19T16:03:14.949Z,29.95
2023-06-19T16:06:17.773Z,29.66
2023-06-19T16:09:20.328Z,29.69
2023-06-19T16:12:23.424Z,30.03
2023-06-19T16:15:29.009Z,30.87
2023-06-19T16:18:31.790Z,31.04
2023-06-19T16:21:34.225Z,31.08
2023-06-19T16:24:37.435Z,31.09
2023-06-19T16:27:40.032Z,31.56
2023-06-19T16:30:42.795Z,31.35
2023-06-19T16:33:45.729Z,31.23
2023-06-19T16:36:49.437Z,32.05
2023-06-19T16:39:51.814Z,31.97
2023-06-19T16:42:55.155Z,31.84
2023-06-19T16:45:57.565Z,31.96
2023-06-19T16:49:00.310Z,32.46
2023-06-19T16:52:02.871Z,32.69
2023-06-19T16:55:06.176Z,32.85
2023-06-19T16:58:08.603Z,33.19
2023-06-19T17:01:13.026Z,33.47
2023-06-19T17:04:15.793Z,33.61
2023-06-19T17:07:18.762Z,33.82
2023-06-19T17:10:22.981Z,34.24
2023-06-19T17:13:26.066Z,34.43
2023-06-19T17:16:28.554Z,34.41
2023-06-19T17:19:31.376Z,34.67
2023-06-19T17:22:33.807Z,35.30
2023-06-19T17:25:36.621Z,35.42
2023-06-19T17:28:39.123Z,35.60
2023-06-19T17:31:41.854Z,35.77
2023-06-19T17:34:44.319Z,35.91
2023-06-19T17:37:47.200Z,36.00
2023-06-19T17:40:49.654Z,36.26
2023-06-19T17:43:52.360Z,36.39
2023-06-19T17:46:54.799Z,36.62
2023-06-19T17:49:57.731Z,36.89
2023-06-19T17:53:00.185Z,37.12
2023-06-19T17:56:05.830Z,37.51
2023-06-19T17:59:08.418Z,37.95
2023-06-19T18:02:11.405Z,38.08
2023-06-19T18:05:14.127Z,38.27
2023-06-19T18:08:16.571Z,38.28
2023-06-19T18:11:19.269Z,38.25
2023-06-19T18:14:25.932Z,38.77
2023-06-19T18:17:28.727Z,39.40
2023-06-19T18:20:31.366Z,39.92
2023-06-19T18:23:34.161Z,40.39
2023-06-19T18:26:36.776Z,40.89
2023-06-19T18:29:39.570Z,41.17
2023-06-19T18:32:42.142Z,41.04
2023-06-19T18:35:44.963Z,41.13
2023-06-19T18:38:47.908Z,41.44
2023-06-19T18:41:50.672Z,41.58
2023-06-19T18:44:53.786Z,41.87
2023-06-19T18:47:56.512Z,42.10
2023-06-19T18:50:59.357Z,42.36
2023-06-19T18:54:02.090Z,42.56
2023-06-19T18:57:04.766Z,42.93
2023-06-19T19:00:07.989Z,43.29
2023-06-19T19:03:10.627Z,43.64
2023-06-19T19:06:15.367Z,44.15
2023-06-19T19:09:19.335Z,44.45
2023-06-19T19:12:22.031Z,44.89
2023-06-19T19:15:24.627Z,45.02
2023-06-19T19:18:27.624Z,45.34
2023-06-19T19:21:30.252Z,45.64
2023-06-19T19:24:33.144Z,45.76
2023-06-19T19:27:35.600Z,46.19
2023-06-19T19:30:38.402Z,46.33
2023-06-19T19:33:40.960Z,46.68
2023-06-19T19:36:43.859Z,46.90
2023-06-19T19:39:46.333Z,47.25
2023-06-19T19:42:49.378Z,47.49
2023-06-19T19:45:52.330Z,47.51
2023-06-19T19:48:55.113Z,47.68
2023-06-19T19:51:57.545Z,48.16
2023-06-19T19:55:00.316Z,48.77
2023-06-19T19:58:03.372Z,48.89
2023-06-19T20:01:06.264Z,49.36
2023-06-19T20:04:09.153Z,49.92
2023-06-19T20:07:11.984Z,49.89
2023-06-19T20:10:15.202Z,49.67
2023-06-19T20:13:17.710Z,50.07
2023-06-19T20:16:20.415Z,49.60
2023-06-19T20:19:23.099Z,49.10
2023-06-19T20:22:25.915Z,49.19
2023-06-19T20:25:28.235Z,49.30
2023-06-19T20:28:30.963Z,48.91
2023-06-19T20:31:33.375Z,49.72
2023-06-19T20:34:36.428Z,50.06
2023-06-19T20:37:39.929Z,50.34
2023-06-19T20:40:43.013Z,50.70
2023-06-19T20:43:46.788Z,50.61
2023-06-19T20:46:49.970Z,50.64
2023-06-19T20:49:52.376Z,50.88
2023-06-19T20:52:55.097Z,51.06
2023-06-19T20:55:57.508Z,51.20
2023-06-19T20:59:00.249Z,51.30
2023-06-19T21:02:03.953Z,51.62
2023-06-19T21:05:09.798Z,52.09
2023-06-19T21:08:12.218Z,52.34
2023-06-19T21:11:16.400Z,53.98
2023-06-19T21:14:18.843Z,54.40
2023-06-19T21:17:21.632Z,54.63
2023-06-19T21:20:26.945Z,55.20
2023-06-19T21:23:30.001Z,55.06
2023-06-19T21:26:32.352Z,55.61
2023-06-19T21:29:36.180Z,55.67
2023-06-19T21:32:38.636Z,55.52
2023-06-19T21:35:41.457Z,54.82
2023-06-19T21:38:43.828Z,53.90
2023-06-19T21:41:46.697Z,52.29
2023-06-19T21:44:49.093Z,52.49
2023-06-19T21:47:51.995Z,53.54
2023-06-19T21:50:54.639Z,53.74
2023-06-19T21:53:57.349Z,53.82
2023-06-19T21:56:59.829Z,54.03
2023-06-19T22:00:05.403Z,54.24
2023-06-19T22:03:07.740Z,56.03
2023-06-19T22:06:10.692Z,56.89
2023-06-19T22:09:13.073Z,57.07
2023-06-19T22:12:15.758Z,57.30
2023-06-19T22:15:18.279Z,56.76
2023-06-19T22:18:21.005Z,56.48
2023-06-19T22:21:23.443Z,56.62
2023-06-19T22:24:26.331Z,56.62
2023-06-19T22:27:28.810Z,56.61
2023-06-19T22:30:31.768Z,56.86
2023-06-19T22:33:34.222Z,56.55
2023-06-19T22:36:36.970Z,56.82
2023-06-19T22:39:39.395Z,57.11
2023-06-19T22:42:42.959Z,57.00
2023-06-19T22:45:45.496Z,57.21
2023-06-19T22:48:51.708Z,57.58
2023-06-19T22:51:54.434Z,57.33
2023-06-19T22:54:57.069Z,57.97
2023-06-19T22:57:59.428Z,58.15
2023-06-19T23:01:02.138Z,58.28
2023-06-19T23:04:05.927Z,58.64
2023-06-19T23:07:08.599Z,58.64
2023-06-19T23:10:11.431Z,58.49
2023-06-19T23:13:14.198Z,58.23
2023-06-19T23:16:16.565Z,58.15
2023-06-19T23:19:19.210Z,58.11
2023-06-19T23:22:25.740Z,58.40
2023-06-19T23:25:28.615Z,58.51
2023-06-19T23:28:32.786Z,58.89
2023-06-19T23:31:35.829Z,58.84
2023-06-19T23:34:38.316Z,58.84
2023-06-19T23:37:41.085Z,59.47
2023-06-19T23:40:43.550Z,59.56
2023-06-19T23:43:49.921Z,59.07
2023-06-19T23:46:52.314Z,57.91
2023-06-19T23:49:55.040Z,57.98
2023-06-19T23:52:57.413Z,58.10
2023-06-19T23:56:00.144Z,58.40
2023-06-19T23:59:02.619Z,58.41
